Time;durP1;ratioP1;P1;durP2;ratioP2;P2;SDS_P1;SDS_P2;PMS_P1;PMS_P2;Temp;Humidity;BMP_temperature;BMP_pressure;BME280_temperature;BME280_humidity;BME280_pressure;Samples;Min_cycle;Max_cycle;Signal;HPM_P1;HPM_P2
2023/03/16 00:02:26;;;;;;;12.30;6.70;;;;;;;13.01;44.79;97874.63;6098938;23;20165;-89
2023/03/16 00:04:54;;;;;;;10.33;5.77;;;;;;;12.95;44.37;97876.81;6073387;23;20163;-88
2023/03/16 00:07:21;;;;;;;13.57;6.03;;;;;;;12.97;44.80;97883.75;6098359;23;20194;-89
2023/03/16 00:09:47;;;;;;;16.83;6.60;;;;;;;13.06;44.65;97888.25;6098972;23;20157;-88
2023/03/16 00:12:17;;;;;;;13.30;6.17;;;;;;;13.11;44.60;97884.31;6098887;23;20148;-89
2023/03/16 00:14:46;;;;;;;16.23;7.00;;;;;;;13.17;44.37;97875.06;6073215;23;20528;-89
2023/03/16 00:17:17;;;;;;;13.10;6.43;;;;;;;13.18;43.91;97882.03;6098486;23;20145;-89
2023/03/16 00:19:53;;;;;;;12.10;5.93;;;;;;;13.13;44.41;97881.56;6099194;23;20138;-88
2023/03/16 00:22:22;;;;;;;12.63;5.97;;;;;;;12.93;44.86;97878.75;6099462;23;20133;-88
2023/03/16 00:24:49;;;;;;;18.27;7.67;;;;;;;12.97;44.73;97884.56;6098346;23;20232;-88
2023/03/16 00:27:16;;;;;;;13.27;6.67;;;;;;;13.03;44.44;97888.50;6098664;23;20492;-90
2023/03/16 00:29:47;;;;;;;14.60;6.63;;;;;;;13.06;44.58;97893.50;6098636;23;20216;-88
2023/03/16 00:32:15;;;;;;;11.17;6.70;;;;;;;13.05;44.44;97897.13;6098354;23;20153;-88
2023/03/16 00:34:41;;;;;;;18.27;6.97;;;;;;;13.01;44.44;97895.69;6074344;23;20228;-89
2023/03/16 00:37:08;;;;;;;17.93;7.87;;;;;;;12.99;45.00;97894.97;6098278;23;20149;-90
2023/03/16 00:39:34;;;;;;;18.33;7.60;;;;;;;12.90;45.36;97899.19;6073130;23;20157;-89
2023/03/16 00:42:02;;;;;;;20.63;8.23;;;;;;;12.85;45.50;97899.56;6098247;23;20163;-88
2023/03/16 00:44:27;;;;;;;15.73;7.73;;;;;;;12.72;45.71;97893.63;6098178;23;20664;-88
2023/03/16 00:46:54;;;;;;;17.87;8.43;;;;;;;12.72;45.77;97893.63;6073179;23;20264;-88
2023/03/16 00:49:21;;;;;;;18.27;9.03;;;;;;;12.44;46.50;97891.56;6073089;23;20447;-88
2023/03/16 00:51:46;;;;;;;17.40;7.73;;;;;;;12.51;46.34;97890.09;6074018;23;20163;-88
2023/03/16 00:54:12;;;;;;;20.63;8.17;;;;;;;12.64;46.42;97884.69;6098165;23;20152;-88
2023/03/16 00:56:37;;;;;;;16.27;7.53;;;;;;;12.70;46.49;97881.56;6073056;23;20157;-88
2023/03/16 00:59:04;;;;;;;29.67;8.37;;;;;;;12.61;46.75;97877.88;6073007;23;20235;-89
2023/03/16 01:01:34;;;;;;;18.63;8.07;;;;;;;12.63;46.79;97875.16;6073472;23;20243;-89
2023/03/16 01:04:01;;;;;;;21.33;8.57;;;;;;;12.51;47.06;97869.06;6098316;23;20237;-88
2023/03/16 01:06:26;;;;;;;19.83;8.97;;;;;;;12.47;47.25;97872.91;6098001;23;20514;-89
2023/03/16 01:08:53;;;;;;;16.63;9.10;;;;;;;12.55;47.35;97873.13;6098451;23;20541;-89
2023/03/16 01:11:21;;;;;;;21.20;9.13;;;;;;;12.51;47.23;97876.97;6072665;23;20164;-90
2023/03/16 01:13:49;;;;;;;22.93;10.53;;;;;;;12.24;47.37;97877.34;6072747;23;20329;-89
2023/03/16 01:16:21;;;;;;;21.97;9.10;;;;;;;12.21;48.22;97871.53;6097924;23;20227;-88
2023/03/16 01:18:48;;;;;;;20.17;9.50;;;;;;;12.10;48.37;97884.69;6098284;23;20601;-89
2023/03/16 01:21:14;;;;;;;23.13;9.70;;;;;;;12.01;48.80;97877.50;6097906;23;20153;-87
2023/03/16 01:23:42;;;;;;;22.03;9.33;;;;;;;11.99;49.03;97884.66;6098182;23;20176;-88
2023/03/16 01:26:09;;;;;;;21.17;8.43;;;;;;;11.98;49.39;97888.25;6098370;23;20209;-90
2023/03/16 01:28:34;;;;;;;21.60;10.40;;;;;;;11.85;49.68;97885.75;6098432;23;20572;-89
2023/03/16 01:31:13;;;;;;;21.17;8.97;;;;;;;11.87;49.67;97890.88;6072527;23;20227;-88
2023/03/16 01:33:40;;;;;;;22.57;9.80;;;;;;;11.78;49.90;97894.22;6072576;23;20243;-88
2023/03/16 01:36:12;;;;;;;17.47;9.43;;;;;;;11.66;50.23;97894.16;6072604;23;20191;-88
2023/03/16 01:38:39;;;;;;;17.33;9.73;;;;;;;11.82;49.72;97895.66;6098445;23;20140;-87
2023/03/16 01:41:05;;;;;;;21.90;9.87;;;;;;;11.61;50.30;97896.31;6098334;23;20640;-87
2023/03/16 01:43:33;;;;;;;17.40;9.53;;;;;;;11.71;50.22;97892.03;6097920;23;20522;-87
2023/03/16 01:46:05;;;;;;;17.90;9.30;;;;;;;11.68;50.37;97887.06;6097455;23;20191;-88
2023/03/16 01:48:42;;;;;;;15.23;8.47;;;;;;;11.68;50.35;97897.56;6098320;23;20154;-87
2023/03/16 01:51:15;;;;;;;16.50;8.53;;;;;;;11.56;50.30;97903.69;6098230;23;20223;-88
2023/03/16 01:53:45;;;;;;;19.73;8.40;;;;;;;11.79;50.10;97906.38;6072511;23;20145;-88
2023/03/16 01:56:17;;;;;;;18.40;8.43;;;;;;;11.83;50.17;97907.81;6073276;23;20584;-87
2023/03/16 01:58:44;;;;;;;18.13;8.27;;;;;;;11.95;49.77;97906.88;6097569;23;20133;-88
2023/03/16 02:01:11;;;;;;;18.13;9.50;;;;;;;11.98;49.75;97909.25;6097493;23;20176;-89
2023/03/16 02:03:38;;;;;;;17.47;8.77;;;;;;;12.01;50.31;97912.47;6072390;23;20156;-88
2023/03/16 02:06:14;;;;;;;15.43;7.43;;;;;;;12.08;50.40;97921.53;6097446;23;20195;-88
2023/03/16 02:08:44;;;;;;;13.50;7.63;;;;;;;11.95;50.75;97920.00;6097470;23;20141;-88
2023/03/16 02:11:10;;;;;;;14.17;7.67;;;;;;;11.98;50.29;97925.84;6072398;23;20584;-88
2023/03/16 02:13:35;;;;;;;17.00;7.23;;;;;;;12.10;50.78;97914.41;6097577;23;20160;-88
2023/03/16 02:16:04;;;;;;;15.00;7.63;;;;;;;12.09;50.55;97919.75;6073174;23;20153;-88
2023/03/16 02:18:30;;;;;;;21.80;8.33;;;;;;;12.04;50.87;97920.13;6072458;23;20158;-87
2023/03/16 02:21:12;;;;;;;14.30;6.93;;;;;;;12.04;51.54;97927.16;6072153;23;20184;-88
2023/03/16 02:23:42;;;;;;;18.27;8.63;;;;;;;11.99;51.69;97932.78;6097333;23;20145;-89
2023/03/16 02:26:44;;;;;;;17.40;7.90;;;;;;;12.04;51.21;97930.63;6097148;23;20185;-87
2023/03/16 02:29:17;;;;;;;16.50;8.13;;;;;;;12.01;51.50;97930.88;6097576;23;20162;-88
2023/03/16 02:31:45;;;;;;;16.23;8.30;;;;;;;12.00;51.56;97931.81;6073467;23;20489;-89
2023/03/16 02:34:13;;;;;;;15.77;8.47;;;;;;;12.16;51.58;97934.91;6072005;23;20628;-89
2023/03/16 02:36:42;;;;;;;15.20;7.90;;;;;;;12.22;51.21;97944.13;6097142;23;20240;-89
2023/03/16 02:39:09;;;;;;;16.87;7.67;;;;;;;12.09;51.73;97943.41;6097080;23;20191;-88
2023/03/16 02:41:35;;;;;;;17.53;8.63;;;;;;;11.94;52.48;97950.69;6071967;23;20534;-88
2023/03/16 02:44:13;;;;;;;18.73;8.10;;;;;;;11.94;52.60;97944.59;6097467;23;20160;-88
2023/03/16 02:46:42;;;;;;;20.27;9.13;;;;;;;12.00;52.62;97958.06;6097274;23;20176;-89
2023/03/16 02:49:23;;;;;;;16.53;8.47;;;;;;;11.98;52.82;97952.09;6097397;23;20161;-90
2023/03/16 02:51:50;;;;;;;16.63;9.57;;;;;;;12.05;52.74;97957.72;6097411;23;20549;-88
2023/03/16 02:54:17;;;;;;;17.27;9.07;;;;;;;11.98;52.95;97959.97;6097368;23;20159;-89
2023/03/16 02:56:44;;;;;;;15.90;8.13;;;;;;;12.05;53.25;97963.00;6097352;23;20148;-89
2023/03/16 02:59:10;;;;;;;17.60;8.20;;;;;;;12.07;53.08;97961.91;6097273;23;20572;-89
2023/03/16 03:01:37;;;;;;;19.97;8.20;;;;;;;12.12;53.03;97965.03;6071828;23;20171;-88
2023/03/16 03:04:04;;;;;;;13.30;7.40;;;;;;;12.22;53.32;97957.25;6097272;23;20176;-89
2023/03/16 03:06:31;;;;;;;18.77;8.07;;;;;;;12.12;53.67;97969.44;6071542;23;20204;-89
2023/03/16 03:09:01;;;;;;;15.93;8.33;;;;;;;12.14;54.03;97975.38;6097134;23;20209;-88
2023/03/16 03:11:27;;;;;;;12.70;8.00;;;;;;;12.03;54.38;97981.47;6097285;23;20133;-88
2023/03/16 03:13:53;;;;;;;17.80;8.00;;;;;;;12.16;54.18;97986.59;6096842;23;20179;-88
2023/03/16 03:16:20;;;;;;;13.70;7.43;;;;;;;12.23;53.54;97979.94;6071587;23;20149;-89
2023/03/16 03:18:47;;;;;;;11.53;7.27;;;;;;;12.22;53.90;97986.16;6097465;23;20235;-88
2023/03/16 03:21:13;;;;;;;14.57;8.33;;;;;;;12.35;53.69;97986.88;6071685;23;20195;-88
2023/03/16 03:23:40;;;;;;;13.57;7.60;;;;;;;12.39;53.61;97988.31;6096801;23;20540;-89
2023/03/16 03:26:05;;;;;;;14.90;7.07;;;;;;;12.44;53.74;97995.84;6096782;23;20176;-89
2023/03/16 03:28:33;;;;;;;15.67;8.50;;;;;;;12.16;54.39;98003.22;6096757;23;20148;-89
2023/03/16 03:31:00;;;;;;;14.43;6.50;;;;;;;12.09;54.61;98001.19;6096796;23;20156;-88
2023/03/16 03:33:26;;;;;;;13.20;7.27;;;;;;;12.17;54.48;98001.44;6096805;23;20238;-89
2023/03/16 03:35:57;;;;;;;14.67;6.97;;;;;;;12.30;54.44;98010.03;6071618;23;20489;-89
2023/03/16 03:38:24;;;;;;;15.20;7.33;;;;;;;12.31;54.94;98014.34;6096751;23;20148;-89
2023/03/16 03:40:52;;;;;;;14.33;7.47;;;;;;;12.13;55.85;98016.56;6097001;23;20228;-88
2023/03/16 03:43:18;;;;;;;13.03;7.37;;;;;;;12.07;56.08;98014.44;6096753;23;20172;-88
2023/03/16 03:45:43;;;;;;;15.00;6.67;;;;;;;12.21;55.79;98021.28;6071594;23;20242;-89
2023/03/16 03:48:09;;;;;;;16.33;7.10;;;;;;;12.29;55.76;98024.97;6072019;23;20675;-89
2023/03/16 03:50:37;;;;;;;11.00;6.23;;;;;;;11.96;56.69;98027.53;6071558;23;20161;-89
2023/03/16 03:53:04;;;;;;;12.37;6.80;;;;;;;12.06;56.18;98027.66;6071518;23;20576;-89
2023/03/16 03:55:29;;;;;;;12.77;6.00;;;;;;;12.06;56.43;98019.78;6096897;23;20223;-88
2023/03/16 03:57:55;;;;;;;12.83;6.70;;;;;;;11.97;56.56;98031.00;6071432;23;20262;-90
2023/03/16 04:00:22;;;;;;;15.13;8.60;;;;;;;11.77;57.81;98026.41;6071442;23;20157;-89
2023/03/16 04:02:48;;;;;;;16.90;6.57;;;;;;;11.95;57.34;98031.09;6096935;23;20215;-89
2023/03/16 04:05:14;;;;;;;14.50;6.50;;;;;;;11.99;56.85;98031.72;6096934;23;20163;-89
2023/03/16 04:07:40;;;;;;;15.07;6.77;;;;;;;11.69;57.69;98037.47;6096334;23;20200;-88
2023/03/16 04:10:07;;;;;;;14.60;7.80;;;;;;;11.80;57.60;98042.78;6071495;23;20154;-89
2023/03/16 04:12:33;;;;;;;15.20;7.10;;;;;;;11.80;57.64;98055.91;6096629;23;20236;-89
2023/03/16 04:14:58;;;;;;;11.57;6.10;;;;;;;11.66;58.16;98048.19;6096603;23;20531;-89
2023/03/16 04:17:24;;;;;;;12.00;6.00;;;;;;;11.85;57.49;98052.91;6071373;23;20153;-88
2023/03/16 04:19:50;;;;;;;14.53;5.97;;;;;;;11.49;58.45;98059.09;6096533;23;20165;-89
2023/03/16 04:22:17;;;;;;;16.83;5.67;;;;;;;11.56;58.42;98065.53;6097228;23;20154;-89
2023/03/16 04:24:43;;;;;;;12.07;5.73;;;;;;;11.64;58.26;98061.41;6097140;23;20231;-89
2023/03/16 04:27:10;;;;;;;13.70;5.40;;;;;;;11.71;58.07;98065.28;6097039;23;20176;-89
2023/03/16 04:29:37;;;;;;;10.00;5.40;;;;;;;11.76;58.10;98072.00;6096554;23;20216;-90
2023/03/16 04:32:06;;;;;;;8.90;4.60;;;;;;;11.56;58.40;98071.63;6096534;23;20176;-90
2023/03/16 04:34:31;;;;;;;10.80;5.43;;;;;;;11.64;58.19;98081.56;6096979;23;20152;-89
2023/03/16 04:36:58;;;;;;;13.43;5.90;;;;;;;11.56;58.94;98076.88;6098359;23;20261;-89
2023/03/16 04:39:23;;;;;;;12.27;5.00;;;;;;;11.75;58.31;98084.28;6073219;23;20156;-89
2023/03/16 04:41:50;;;;;;;9.93;4.90;;;;;;;11.78;58.05;98085.84;6098624;23;20163;-89
2023/03/16 04:44:16;;;;;;;10.47;5.00;;;;;;;11.78;57.92;98093.72;6098252;23;20148;-88
2023/03/16 04:46:42;;;;;;;9.27;4.63;;;;;;;11.63;58.50;98087.78;6098413;23;20177;-89
2023/03/16 04:49:09;;;;;;;11.43;4.77;;;;;;;11.78;58.53;98093.72;6098212;23;20258;-89
2023/03/16 04:51:39;;;;;;;7.53;4.10;;;;;;;11.64;58.03;98087.66;6098210;23;20149;-89
2023/03/16 04:54:06;;;;;;;6.23;3.53;;;;;;;11.58;58.70;98095.97;6098186;23;20223;-90
2023/03/16 04:56:33;;;;;;;9.43;4.17;;;;;;;11.69;58.40;98097.84;6098738;23;20148;-89
2023/03/16 04:59:00;;;;;;;8.73;4.20;;;;;;;11.89;57.77;98110.38;6098393;23;20194;-89
2023/03/16 05:01:28;;;;;;;11.90;4.20;;;;;;;11.93;57.29;98105.69;6098178;23;20156;-88
2023/03/16 05:03:54;;;;;;;5.80;2.93;;;;;;;11.98;56.86;98107.03;6072940;23;20188;-89
2023/03/16 05:06:20;;;;;;;8.50;3.03;;;;;;;11.92;56.92;98114.56;6072658;23;20211;-89
2023/03/16 05:08:45;;;;;;;4.37;2.50;;;;;;;11.63;57.72;98120.09;6098060;23;20160;-88
2023/03/16 05:11:11;;;;;;;5.00;2.27;;;;;;;11.65;57.54;98123.47;6072881;23;20250;-88
2023/03/16 05:13:36;;;;;;;5.10;2.50;;;;;;;11.63;57.75;98125.34;6073304;23;20167;-88
2023/03/16 05:16:03;;;;;;;4.93;2.30;;;;;;;11.50;57.74;98129.81;6098193;23;20148;-89
2023/03/16 05:18:32;;;;;;;5.23;2.23;;;;;;;11.47;57.75;98130.06;6072811;23;20168;-89
2023/03/16 05:20:59;;;;;;;5.00;2.00;;;;;;;11.28;58.15;98129.69;6071377;23;20169;-89
2023/03/16 05:23:25;;;;;;;3.33;1.90;;;;;;;11.18;57.97;98139.16;6072833;23;20595;-88
2023/03/16 05:25:52;;;;;;;3.33;1.90;;;;;;;11.20;58.04;98134.63;6073693;23;20167;-88
2023/03/16 05:28:18;;;;;;;8.43;2.50;;;;;;;11.16;57.86;98145.47;6096394;23;20519;-89
2023/03/16 05:30:45;;;;;;;5.10;2.53;;;;;;;10.95;58.51;98147.81;6073048;23;20167;-90
2023/03/16 05:33:13;;;;;;;4.37;2.13;;;;;;;10.97;58.66;98153.78;6098245;23;20176;-88
2023/03/16 05:35:39;;;;;;;6.13;2.30;;;;;;;11.09;58.23;98156.38;6097936;23;20236;-89
2023/03/16 05:38:07;;;;;;;3.73;1.97;;;;;;;11.06;57.73;98156.59;6072680;23;20243;-89
2023/03/16 05:40:36;;;;;;;3.80;1.90;;;;;;;11.20;57.20;98163.50;6098140;23;20148;-88
2023/03/16 05:43:03;;;;;;;5.00;2.40;;;;;;;11.34;57.22;98163.38;6098482;23;20219;-89
2023/03/16 05:45:30;;;;;;;3.93;2.17;;;;;;;11.26;57.41;98173.56;6098359;23;20153;-89
2023/03/16 05:47:57;;;;;;;3.93;1.70;;;;;;;11.22;57.33;98177.31;6097202;23;20589;-89
2023/03/16 05:50:25;;;;;;;4.50;2.10;;;;;;;11.22;57.01;98181.72;6097712;23;20164;-89
2023/03/16 05:52:51;;;;;;;4.83;2.43;;;;;;;11.36;56.67;98179.81;6097580;23;20149;-89
2023/03/16 05:55:18;;;;;;;11.53;2.07;;;;;;;10.87;57.31;98179.81;6097684;23;20152;-89
2023/03/16 05:57:44;;;;;;;3.67;1.57;;;;;;;10.64;58.40;98190.19;6097875;23;20158;-87
2023/03/16 06:00:14;;;;;;;5.20;2.10;;;;;;;10.62;58.71;98197.28;6098185;23;20557;-88
2023/03/16 06:02:47;;;;;;;3.53;1.77;;;;;;;10.74;58.16;98192.06;6097537;23;20148;-88
2023/03/16 06:05:15;;;;;;;4.30;2.20;;;;;;;10.87;57.54;98192.06;6049131;23;20557;-88
2023/03/16 06:07:41;;;;;;;5.03;2.50;;;;;;;10.74;58.08;98197.31;6071958;23;20204;-87
2023/03/16 06:10:10;;;;;;;6.67;2.57;;;;;;;10.75;58.30;98201.59;6097357;23;20152;-87
2023/03/16 06:12:40;;;;;;;7.30;2.47;;;;;;;10.90;57.95;98202.34;6097530;23;20593;-87
2023/03/16 06:15:10;;;;;;;7.73;2.43;;;;;;;10.79;57.66;98210.94;6098152;23;20137;-88
2023/03/16 06:17:38;;;;;;;3.90;1.93;;;;;;;10.85;57.65;98212.28;6048633;23;20597;-88
2023/03/16 06:20:09;;;;;;;3.97;2.10;;;;;;;10.86;58.33;98214.81;6097476;23;20230;-88
2023/03/16 06:22:37;;;;;;;5.03;2.67;;;;;;;10.69;57.91;98222.16;6097694;23;20534;-88
2023/03/16 06:25:04;;;;;;;3.93;1.97;;;;;;;10.69;57.84;98222.97;6097457;23;20685;-88
2023/03/16 06:27:31;;;;;;;6.07;2.90;;;;;;;10.71;58.31;98220.25;6097960;23;20255;-88
2023/03/16 06:29:57;;;;;;;4.90;2.23;;;;;;;10.74;58.62;98227.91;6073651;23;20157;-88
2023/03/16 06:32:24;;;;;;;3.70;1.60;;;;;;;10.71;58.44;98228.97;6097639;23;20183;-88
2023/03/16 06:34:51;;;;;;;3.47;1.97;;;;;;;10.57;58.89;98236.06;6072171;23;20160;-88
2023/03/16 06:37:18;;;;;;;3.03;1.37;;;;;;;10.63;58.10;98240.91;6097093;23;20572;-88
2023/03/16 06:39:45;;;;;;;3.83;1.80;;;;;;;10.85;58.17;98252.44;6097314;23;20175;-90
2023/03/16 06:42:12;;;;;;;3.77;1.90;;;;;;;10.96;57.42;98251.72;6097294;23;20192;-87
2023/03/16 06:44:38;;;;;;;7.13;2.90;;;;;;;11.07;56.88;98246.59;6097534;23;20153;-88
2023/03/16 06:47:04;;;;;;;4.13;1.73;;;;;;;11.17;56.63;98247.63;6097455;23;20180;-88
2023/03/16 06:49:30;;;;;;;3.27;1.40;;;;;;;10.82;56.97;98251.84;6097527;23;20159;-88
2023/03/16 06:51:57;;;;;;;5.47;2.30;;;;;;;10.95;57.19;98257.94;6097560;23;20148;-88
2023/03/16 06:54:23;;;;;;;4.47;1.77;;;;;;;10.75;57.44;98258.41;6070169;23;20183;-89
2023/03/16 06:56:48;;;;;;;3.40;1.40;;;;;;;10.84;57.76;98270.91;6094695;23;20551;-88
2023/03/16 06:59:14;;;;;;;5.53;2.13;;;;;;;10.89;57.24;98274.06;6094340;23;20153;-88
2023/03/16 07:01:41;;;;;;;4.03;1.80;;;;;;;10.97;57.45;98271.75;6069433;23;20160;-88
2023/03/16 07:04:07;;;;;;;3.13;1.67;;;;;;;11.18;55.84;98283.41;6094914;23;20235;-88
2023/03/16 07:06:33;;;;;;;2.77;1.30;;;;;;;11.10;56.38;98278.69;6094275;23;20692;-89
2023/03/16 07:09:00;;;;;;;2.90;1.33;;;;;;;10.65;57.09;98280.94;6070373;23;20235;-88
2023/03/16 07:11:26;;;;;;;1.83;1.07;;;;;;;10.76;57.20;98281.91;6072939;23;20168;-89
2023/03/16 07:13:51;;;;;;;2.63;1.13;;;;;;;10.91;56.07;98287.91;6097306;23;20153;-88
2023/03/16 07:16:17;;;;;;;3.07;1.50;;;;;;;10.60;56.66;98293.50;6096999;23;20151;-89
2023/03/16 07:18:43;;;;;;;4.30;1.77;;;;;;;10.96;55.99;98285.81;6072854;23;20614;-88
2023/03/16 07:21:09;;;;;;;2.60;1.00;;;;;;;10.90;55.55;98291.47;6071826;23;20185;-89
2023/03/16 07:23:35;;;;;;;2.17;0.80;;;;;;;10.55;55.56;98296.44;6071534;23;20235;-88
2023/03/16 07:26:00;;;;;;;2.30;1.27;;;;;;;10.29;56.73;98303.38;6071929;23;20255;-88
2023/03/16 07:28:26;;;;;;;2.10;0.90;;;;;;;10.40;56.08;98306.13;6071699;23;20153;-89
2023/03/16 07:30:52;;;;;;;1.97;0.80;;;;;;;10.46;55.71;98304.88;6071535;23;20167;-89
2023/03/16 07:33:18;;;;;;;4.27;0.90;;;;;;;10.35;56.21;98302.97;6072734;23;20188;-88
2023/03/16 07:35:43;;;;;;;5.40;1.33;;;;;;;10.64;55.85;98313.34;6072635;23;20163;-89
2023/03/16 07:38:11;;;;;;;4.60;1.87;;;;;;;10.33;56.47;98312.69;6072034;23;20598;-89
2023/03/16 07:40:38;;;;;;;1.83;0.70;;;;;;;10.50;55.99;98314.25;6097155;23;20152;-89
2023/03/16 07:43:04;;;;;;;2.00;0.80;;;;;;;10.54;55.58;98323.56;6096792;23;20235;-89
2023/03/16 07:45:30;;;;;;;10.63;3.47;;;;;;;10.56;56.38;98319.06;6096762;23;20194;-89
2023/03/16 07:47:56;;;;;;;5.67;2.23;;;;;;;10.71;56.21;98315.44;6097333;23;20187;-88
2023/03/16 07:50:21;;;;;;;1.70;1.10;;;;;;;10.32;57.04;98326.75;6096855;23;20152;-87
2023/03/16 07:52:47;;;;;;;2.03;0.97;;;;;;;10.34;57.00;98321.41;6097459;23;20441;-90
2023/03/16 07:55:13;;;;;;;2.03;1.10;;;;;;;10.58;57.06;98322.44;6071553;23;20484;-89
2023/03/16 07:57:40;;;;;;;2.43;1.10;;;;;;;10.86;56.94;98324.91;6096724;23;20179;-89
2023/03/16 08:00:07;;;;;;;1.60;0.80;;;;;;;10.75;56.33;98326.56;6071536;23;20172;-89
2023/03/16 08:02:33;;;;;;;1.53;0.80;;;;;;;10.59;56.93;98333.75;6096569;23;20601;-88
2023/03/16 08:04:59;;;;;;;1.83;0.87;;;;;;;10.53;57.44;98332.38;6096712;23;20156;-89
2023/03/16 08:07:24;;;;;;;1.30;0.63;;;;;;;10.42;58.59;98332.22;6096689;23;20203;-89
2023/03/16 08:09:51;;;;;;;2.20;0.80;;;;;;;10.36;57.21;98328.22;6097193;23;20156;-90
2023/03/16 08:12:16;;;;;;;1.93;0.80;;;;;;;10.65;58.75;98328.94;6098726;23;20179;-89
2023/03/16 08:14:44;;;;;;;2.43;0.60;;;;;;;10.42;57.27;98347.94;6099390;23;20149;-89
2023/03/16 08:17:11;;;;;;;3.03;1.10;;;;;;;10.42;57.24;98325.22;6099040;23;20156;-88
2023/03/16 08:19:37;;;;;;;2.43;1.00;;;;;;;10.53;57.65;98328.91;6098658;23;20148;-89
2023/03/16 08:22:04;;;;;;;1.57;0.70;;;;;;;10.24;58.41;98338.66;6098641;23;20159;-88
2023/03/16 08:24:30;;;;;;;3.33;1.43;;;;;;;10.52;57.83;98342.94;6098961;23;20149;-90
2023/03/16 08:26:57;;;;;;;1.90;1.07;;;;;;;10.58;56.45;98339.94;6098507;23;20176;-89
2023/03/16 08:29:26;;;;;;;2.20;1.07;;;;;;;10.46;57.25;98345.03;6099270;23;20237;-89
2023/03/16 08:31:53;;;;;;;2.83;0.60;;;;;;;10.36;57.70;98354.41;6098538;23;20152;-90
2023/03/16 08:34:19;;;;;;;2.50;0.97;;;;;;;10.60;57.20;98345.91;6098889;23;20156;-90
2023/03/16 08:36:44;;;;;;;3.40;0.93;;;;;;;10.63;56.27;98345.72;6098493;23;20669;-89
2023/03/16 08:39:10;;;;;;;2.63;1.00;;;;;;;10.66;56.28;98356.84;6073338;23;20534;-89
2023/03/16 08:41:36;;;;;;;1.30;0.50;;;;;;;10.66;56.12;98354.22;6073624;23;20195;-90
2023/03/16 08:44:02;;;;;;;1.90;0.87;;;;;;;10.57;56.79;98357.44;6098770;23;20227;-88
2023/03/16 08:46:28;;;;;;;5.20;0.63;;;;;;;10.79;56.14;98360.34;6098359;23;20604;-88
2023/03/16 08:48:54;;;;;;;2.57;1.03;;;;;;;10.93;55.18;98356.78;6098377;23;20674;-88
2023/03/16 08:51:20;;;;;;;3.07;1.30;;;;;;;10.96;54.73;98346.94;6098350;23;20149;-89
2023/03/16 08:53:45;;;;;;;3.87;1.30;;;;;;;11.00;54.94;98360.72;6098409;23;20164;-88
2023/03/16 08:56:13;;;;;;;3.97;1.27;;;;;;;10.83;56.02;98363.59;6098684;23;20152;-90
2023/03/16 08:58:44;;;;;;;0.60;0.40;;;;;;;10.63;56.36;98366.69;6098273;23;20153;-90
2023/03/16 09:01:11;;;;;;;1.53;0.70;;;;;;;10.74;57.32;98358.97;6098929;23;20147;-89
2023/03/16 09:03:37;;;;;;;1.10;0.50;;;;;;;10.65;56.55;98367.41;6073079;23;20164;-88
2023/03/16 09:06:07;;;;;;;2.03;0.80;;;;;;;10.96;55.61;98354.81;6098035;23;20227;-88
2023/03/16 09:08:32;;;;;;;2.67;1.17;;;;;;;11.22;55.87;98366.19;6098121;23;20513;-88
2023/03/16 09:11:04;;;;;;;1.40;1.10;;;;;;;11.16;53.33;98364.00;6098183;23;20160;-89
2023/03/16 09:13:31;;;;;;;1.93;0.80;;;;;;;11.19;54.77;98376.06;6098535;23;20249;-89
2023/03/16 09:15:58;;;;;;;1.50;0.80;;;;;;;11.39;53.88;98372.91;6073057;23;20537;-89
2023/03/16 09:18:25;;;;;;;2.33;0.77;;;;;;;11.43;51.81;98382.25;6098116;23;20159;-88
2023/03/16 09:20:51;;;;;;;1.63;0.67;;;;;;;11.18;52.75;98377.84;6098037;23;20615;-90
2023/03/16 09:23:18;;;;;;;1.97;0.73;;;;;;;11.13;54.99;98381.72;6098090;23;20148;-89
2023/03/16 09:25:44;;;;;;;2.20;0.80;;;;;;;11.32;54.12;98371.66;6072844;23;20219;-88
2023/03/16 09:28:10;;;;;;;2.67;0.70;;;;;;;11.55;54.98;98381.44;6097976;23;20255;-90
2023/03/16 09:30:36;;;;;;;1.73;0.93;;;;;;;11.98;53.27;98381.94;6098634;23;20152;-89
2023/03/16 09:33:03;;;;;;;4.90;1.17;;;;;;;11.74;51.12;98378.41;6072801;23;20538;-90
2023/03/16 09:35:28;;;;;;;0.57;0.47;;;;;;;11.71;52.26;98380.28;6072756;23;20460;-90
2023/03/16 09:37:56;;;;;;;0.87;0.50;;;;;;;11.49;51.60;98390.56;6097899;23;20153;-89
2023/03/16 09:40:28;;;;;;;0.73;0.40;;;;;;;11.67;52.06;98388.47;6097953;23;20236;-89
2023/03/16 09:43:13;;;;;;;2.03;0.70;;;;;;;11.76;52.09;98390.50;6098153;23;20591;-89
2023/03/16 09:46:06;;;;;;;2.43;1.00;;;;;;;11.90;51.33;98397.38;6098452;23;20165;-90
2023/03/16 09:48:34;;;;;;;4.27;1.70;;;;;;;12.27;50.45;98396.50;6098181;23;20151;-90
2023/03/16 09:51:02;;;;;;;2.40;1.03;;;;;;;12.58;50.19;98400.41;6072586;23;20160;-89
2023/03/16 09:53:36;;;;;;;3.20;1.00;;;;;;;12.48;48.83;98408.09;6097762;23;20151;-90
2023/03/16 09:56:09;;;;;;;3.63;1.30;;;;;;;12.43;49.95;98402.34;6098114;23;20149;-89
2023/03/16 09:58:35;;;;;;;3.57;1.50;;;;;;;12.65;49.00;98396.38;6098001;23;20604;-89
2023/03/16 10:01:17;;;;;;;2.43;0.70;;;;;;;12.62;48.72;98407.97;6097581;23;20421;-88
2023/03/16 10:03:49;;;;;;;4.00;1.07;;;;;;;12.40;48.77;98405.19;6097988;23;20144;-89
2023/03/16 10:06:15;;;;;;;2.43;0.93;;;;;;;12.58;48.61;98409.09;6097356;23;20160;-90
2023/03/16 10:08:58;;;;;;;3.33;1.30;;;;;;;12.49;47.47;98404.53;6072533;23;20153;-89
2023/03/16 10:11:45;;;;;;;2.77;1.17;;;;;;;12.47;47.53;98406.44;6097942;23;20477;-91
2023/03/16 10:14:36;;;;;;;2.50;0.87;;;;;;;12.36;48.58;98409.00;6097670;23;20573;-90
2023/03/16 10:17:08;;;;;;;4.27;1.10;;;;;;;12.35;48.51;98409.94;6097987;23;20208;-90
2023/03/16 10:19:58;;;;;;;3.97;1.30;;;;;;;12.57;48.70;98411.88;6097833;23;20153;-89
2023/03/16 10:22:28;;;;;;;3.13;0.87;;;;;;;12.62;47.87;98409.75;6098121;23;20216;-90
2023/03/16 10:25:12;;;;;;;7.30;1.20;;;;;;;12.48;47.13;98408.09;6072388;23;20207;-91
2023/03/16 10:27:42;;;;;;;3.97;1.10;;;;;;;12.27;48.20;98414.88;6097725;23;20169;-89
2023/03/16 10:30:29;;;;;;;2.67;1.00;;;;;;;12.60;47.45;98411.66;6072239;23;20611;-89
2023/03/16 10:32:59;;;;;;;1.90;0.80;;;;;;;12.33;46.79;98415.31;6072384;23;20240;-90
2023/03/16 10:35:43;;;;;;;5.70;0.90;;;;;;;12.17;47.53;98416.47;6098134;23;20609;-90
2023/03/16 10:38:31;;;;;;;3.37;1.13;;;;;;;11.97;47.67;98420.53;6097401;23;20148;-89
2023/03/16 10:40:58;;;;;;;3.60;1.00;;;;;;;12.11;47.80;98424.78;6097394;23;20484;-89
2023/03/16 10:43:24;;;;;;;2.50;0.80;;;;;;;12.00;47.70;98422.09;6072048;23;20643;-89
2023/03/16 10:45:50;;;;;;;1.30;0.80;;;;;;;12.16;47.33;98417.41;6072123;23;20269;-89
2023/03/16 10:48:18;;;;;;;2.23;1.00;;;;;;;12.48;47.23;98423.88;6097769;23;20216;-89
2023/03/16 10:50:53;;;;;;;5.10;2.27;;;;;;;12.62;46.43;98409.75;6073017;23;20152;-90
2023/03/16 10:53:34;;;;;;;2.20;0.70;;;;;;;12.77;46.50;98398.94;6097566;23;20229;-90
2023/03/16 10:56:08;;;;;;;0.80;0.53;;;;;;;12.67;45.91;98413.72;6071981;23;20236;-88
2023/03/16 10:58:34;;;;;;;2.10;0.90;;;;;;;12.49;46.04;98414.19;6072050;23;20145;-89
2023/03/16 11:01:00;;;;;;;6.57;1.30;;;;;;;12.44;45.64;98409.28;6071997;23;20166;-92
2023/03/16 11:03:37;;;;;;;1.97;0.90;;;;;;;12.42;45.59;98419.03;6071928;23;20188;-89
2023/03/16 11:06:16;;;;;;;2.83;0.97;;;;;;;12.47;46.03;98411.69;6071948;23;20181;-90
2023/03/16 11:08:42;;;;;;;4.50;0.83;;;;;;;12.83;46.69;98409.03;6071992;23;20150;-89
2023/03/16 11:11:15;;;;;;;2.43;1.00;;;;;;;12.88;44.85;98393.75;6097103;23;20248;-89
2023/03/16 11:13:46;;;;;;;1.50;0.60;;;;;;;12.89;44.90;98402.47;6071736;23;20599;-89
2023/03/16 11:16:24;;;;;;;0.93;0.60;;;;;;;13.06;45.76;98398.59;6097367;23;20582;-89
2023/03/16 11:18:56;;;;;;;2.20;0.77;;;;;;;12.99;45.35;98394.75;6097695;23;20558;-89
2023/03/16 11:21:21;;;;;;;2.73;1.03;;;;;;;13.30;44.25;98389.75;6097341;23;20140;-89
2023/03/16 11:23:51;;;;;;;1.73;0.53;;;;;;;13.51;44.14;98388.13;6096976;23;20226;-89
2023/03/16 11:26:24;;;;;;;1.90;0.70;;;;;;;13.68;44.48;98392.06;6097172;23;20602;-90
2023/03/16 11:29:01;;;;;;;1.63;0.73;;;;;;;13.64;45.60;98390.66;6072328;23;20148;-90
2023/03/16 11:31:48;;;;;;;2.07;0.80;;;;;;;13.61;44.57;98393.50;6096960;23;20174;-90
2023/03/16 11:34:27;;;;;;;1.87;1.10;;;;;;;13.52;43.85;98396.88;6097582;23;20210;-90
2023/03/16 11:36:58;;;;;;;1.40;0.70;;;;;;;13.27;44.75;98402.28;6097270;23;20137;-89